sensor_id;sensor_type;location;lat;lon;timestamp;P1;durP1;ratioP1;P2;durP2;ratioP2
2884;SDS011;54691;48.262;11.586;2022-09-09T00:02:28;2.62;;;1.37;;
2884;SDS011;54691;48.262;11.586;2022-09-09T00:09:26;2.37;;;1.10;;
2884;SDS011;54691;48.262;11.586;2022-09-09T00:16:24;2.65;;;1.30;;
2884;SDS011;54691;48.262;11.586;2022-09-09T00:30:23;2.27;;;0.80;;
2884;SDS011;54691;48.262;11.586;2022-09-09T00:37:21;2.75;;;1.40;;
2884;SDS011;54691;48.262;11.586;2022-09-09T00:47:56;6.30;;;1.30;;
2884;SDS011;54691;48.262;11.586;2022-09-09T00:55:08;4.87;;;1.30;;
2884;SDS011;54691;48.262;11.586;2022-09-09T00:58:35;3.72;;;1.30;;
2884;SDS011;54691;48.262;11.586;2022-09-09T01:12:38;5.33;;;1.25;;
2884;SDS011;54691;48.262;11.586;2022-09-09T01:19:37;3.27;;;1.40;;
2884;SDS011;54691;48.262;11.586;2022-09-09T01:33:31;4.55;;;1.40;;
2884;SDS011;54691;48.262;11.586;2022-09-09T01:40:28;2.27;;;1.40;;
2884;SDS011;54691;48.262;11.586;2022-09-09T01:47:25;3.25;;;1.27;;
2884;SDS011;54691;48.262;11.586;2022-09-09T01:54:23;1.47;;;1.10;;
2884;SDS011;54691;48.262;11.586;2022-09-09T02:01:27;2.00;;;1.27;;
2884;SDS011;54691;48.262;11.586;2022-09-09T02:15:34;4.03;;;1.15;;
2884;SDS011;54691;48.262;11.586;2022-09-09T02:22:31;2.05;;;1.07;;
2884;SDS011;54691;48.262;11.586;2022-09-09T02:29:33;1.98;;;1.27;;
2884;SDS011;54691;48.262;11.586;2022-09-09T02:36:31;4.58;;;1.55;;
2884;SDS011;54691;48.262;11.586;2022-09-09T02:43:35;6.20;;;1.70;;
2884;SDS011;54691;48.262;11.586;2022-09-09T02:47:11;6.90;;;1.50;;
2884;SDS011;54691;48.262;11.586;2022-09-09T02:54:16;3.25;;;1.35;;
2884;SDS011;54691;48.262;11.586;2022-09-09T02:57:44;4.00;;;1.60;;
2884;SDS011;54691;48.262;11.586;2022-09-09T03:04:43;4.45;;;1.25;;
2884;SDS011;54691;48.262;11.586;2022-09-09T03:11:40;2.75;;;1.42;;
2884;SDS011;54691;48.262;11.586;2022-09-09T03:18:37;2.42;;;1.47;;
2884;SDS011;54691;48.262;11.586;2022-09-09T03:25:34;3.80;;;1.40;;
2884;SDS011;54691;48.262;11.586;2022-09-09T03:32:33;4.92;;;1.55;;
2884;SDS011;54691;48.262;11.586;2022-09-09T03:39:30;1.65;;;1.10;;
2884;SDS011;54691;48.262;11.586;2022-09-09T03:46:27;9.55;;;1.22;;
2884;SDS011;54691;48.262;11.586;2022-09-09T03:53:24;4.72;;;1.12;;
2884;SDS011;54691;48.262;11.586;2022-09-09T04:00:21;2.35;;;1.00;;
2884;SDS011;54691;48.262;11.586;2022-09-09T04:07:18;2.33;;;1.47;;
2884;SDS011;54691;48.262;11.586;2022-09-09T04:14:15;3.75;;;1.40;;
2884;SDS011;54691;48.262;11.586;2022-09-09T04:21:12;4.83;;;1.12;;
2884;SDS011;54691;48.262;11.586;2022-09-09T04:28:11;3.67;;;1.27;;
2884;SDS011;54691;48.262;11.586;2022-09-09T04:35:09;0.80;;;0.80;;
2884;SDS011;54691;48.262;11.586;2022-09-09T04:42:07;2.77;;;1.02;;
2884;SDS011;54691;48.262;11.586;2022-09-09T04:49:04;4.12;;;1.35;;
2884;SDS011;54691;48.262;11.586;2022-09-09T04:56:08;3.67;;;1.20;;
2884;SDS011;54691;48.262;11.586;2022-09-09T05:03:04;3.08;;;0.80;;
2884;SDS011;54691;48.262;11.586;2022-09-09T05:10:03;5.35;;;1.10;;
2884;SDS011;54691;48.262;11.586;2022-09-09T05:17:00;3.52;;;1.37;;
2884;SDS011;54691;48.262;11.586;2022-09-09T05:23:57;1.77;;;1.20;;
2884;SDS011;54691;48.262;11.586;2022-09-09T05:31:02;2.55;;;1.37;;
2884;SDS011;54691;48.262;11.586;2022-09-09T05:37:59;6.00;;;1.27;;
2884;SDS011;54691;48.262;11.586;2022-09-09T05:44:56;8.55;;;1.00;;
2884;SDS011;54691;48.262;11.586;2022-09-09T05:51:53;2.40;;;1.25;;
2884;SDS011;54691;48.262;11.586;2022-09-09T05:58:51;1.50;;;1.10;;
2884;SDS011;54691;48.262;11.586;2022-09-09T06:05:56;7.30;;;1.12;;
2884;SDS011;54691;48.262;11.586;2022-09-09T06:12:48;5.72;;;1.12;;
2884;SDS011;54691;48.262;11.586;2022-09-09T06:19:45;6.08;;;1.47;;
2884;SDS011;54691;48.262;11.586;2022-09-09T06:26:42;2.62;;;1.25;;
2884;SDS011;54691;48.262;11.586;2022-09-09T06:33:48;9.80;;;1.50;;
2884;SDS011;54691;48.262;11.586;2022-09-09T06:44:14;4.60;;;0.82;;
2884;SDS011;54691;48.262;11.586;2022-09-09T06:51:12;3.70;;;0.93;;
2884;SDS011;54691;48.262;11.586;2022-09-09T06:58:09;1.32;;;0.70;;
2884;SDS011;54691;48.262;11.586;2022-09-09T07:05:08;4.37;;;0.70;;
2884;SDS011;54691;48.262;11.586;2022-09-09T07:12:05;1.07;;;0.80;;
2884;SDS011;54691;48.262;11.586;2022-09-09T07:19:03;3.15;;;1.20;;
2884;SDS011;54691;48.262;11.586;2022-09-09T07:26:01;3.15;;;1.17;;
2884;SDS011;54691;48.262;11.586;2022-09-09T07:32:58;9.05;;;1.40;;
2884;SDS011;54691;48.262;11.586;2022-09-09T07:39:55;2.83;;;1.12;;
2884;SDS011;54691;48.262;11.586;2022-09-09T07:46:53;3.58;;;1.42;;
2884;SDS011;54691;48.262;11.586;2022-09-09T07:53:54;5.85;;;1.40;;
2884;SDS011;54691;48.262;11.586;2022-09-09T08:04:23;2.42;;;1.32;;
2884;SDS011;54691;48.262;11.586;2022-09-09T08:11:21;4.55;;;2.30;;
2884;SDS011;54691;48.262;11.586;2022-09-09T08:18:19;3.08;;;1.10;;
2884;SDS011;54691;48.262;11.586;2022-09-09T08:25:16;2.12;;;0.82;;
2884;SDS011;54691;48.262;11.586;2022-09-09T08:32:13;5.42;;;1.47;;
2884;SDS011;54691;48.262;11.586;2022-09-09T08:39:13;3.33;;;1.30;;
2884;SDS011;54691;48.262;11.586;2022-09-09T08:42:51;5.60;;;1.65;;
2884;SDS011;54691;48.262;11.586;2022-09-09T08:53:38;3.45;;;1.72;;
2884;SDS011;54691;48.262;11.586;2022-09-09T09:11:14;2.43;;;1.20;;
2884;SDS011;54691;48.262;11.586;2022-09-09T09:18:12;4.87;;;1.35;;
2884;SDS011;54691;48.262;11.586;2022-09-09T09:28:46;5.05;;;1.10;;
2884;SDS011;54691;48.262;11.586;2022-09-09T09:35:43;2.55;;;0.90;;
2884;SDS011;54691;48.262;11.586;2022-09-09T09:43:02;2.75;;;1.40;;
2884;SDS011;54691;48.262;11.586;2022-09-09T09:49:59;2.80;;;0.82;;
2884;SDS011;54691;48.262;11.586;2022-09-09T09:53:30;2.17;;;1.10;;
2884;SDS011;54691;48.262;11.586;2022-09-09T10:00:27;2.02;;;0.85;;
2884;SDS011;54691;48.262;11.586;2022-09-09T10:07:25;2.12;;;0.55;;
2884;SDS011;54691;48.262;11.586;2022-09-09T10:14:32;3.40;;;0.68;;
2884;SDS011;54691;48.262;11.586;2022-09-09T10:28:27;5.67;;;0.98;;
2884;SDS011;54691;48.262;11.586;2022-09-09T11:00:24;1.25;;;0.53;;
2884;SDS011;54691;48.262;11.586;2022-09-09T11:07:14;2.33;;;0.50;;
2884;SDS011;54691;48.262;11.586;2022-09-09T11:24:47;6.08;;;0.85;;
2884;SDS011;54691;48.262;11.586;2022-09-09T11:31:44;1.82;;;0.50;;
2884;SDS011;54691;48.262;11.586;2022-09-09T11:38:49;1.80;;;0.88;;
2884;SDS011;54691;48.262;11.586;2022-09-09T11:49:28;1.55;;;0.62;;
2884;SDS011;54691;48.262;11.586;2022-09-09T11:53:03;0.93;;;0.40;;
2884;SDS011;54691;48.262;11.586;2022-09-09T12:00:00;1.12;;;0.40;;
2884;SDS011;54691;48.262;11.586;2022-09-09T12:07:21;0.50;;;0.40;;
2884;SDS011;54691;48.262;11.586;2022-09-09T12:10:39;1.65;;;0.50;;
2884;SDS011;54691;48.262;11.586;2022-09-09T12:25:04;0.78;;;0.40;;
2884;SDS011;54691;48.262;11.586;2022-09-09T12:32:00;1.22;;;0.33;;
2884;SDS011;54691;48.262;11.586;2022-09-09T12:38:57;1.60;;;0.47;;
2884;SDS011;54691;48.262;11.586;2022-09-09T12:46:06;0.70;;;0.30;;
2884;SDS011;54691;48.262;11.586;2022-09-09T12:56:27;0.98;;;0.40;;
2884;SDS011;54691;48.262;11.586;2022-09-09T13:03:26;2.05;;;0.60;;
2884;SDS011;54691;48.262;11.586;2022-09-09T13:10:27;1.50;;;0.50;;
2884;SDS011;54691;48.262;11.586;2022-09-09T13:17:28;1.07;;;0.40;;
2884;SDS011;54691;48.262;11.586;2022-09-09T13:28:03;0.30;;;0.30;;
2884;SDS011;54691;48.262;11.586;2022-09-09T13:31:36;1.45;;;0.50;;
2884;SDS011;54691;48.262;11.586;2022-09-09T13:38:38;0.53;;;0.40;;
2884;SDS011;54691;48.262;11.586;2022-09-09T13:45:35;1.32;;;0.50;;
2884;SDS011;54691;48.262;11.586;2022-09-09T13:52:32;0.35;;;0.30;;
2884;SDS011;54691;48.262;11.586;2022-09-09T13:59:30;0.37;;;0.20;;
2884;SDS011;54691;48.262;11.586;2022-09-09T14:06:29;1.57;;;0.40;;
2884;SDS011;54691;48.262;11.586;2022-09-09T14:13:30;0.65;;;0.30;;
2884;SDS011;54691;48.262;11.586;2022-09-09T14:20:27;1.47;;;0.30;;
2884;SDS011;54691;48.262;11.586;2022-09-09T14:27:25;5.00;;;1.50;;
2884;SDS011;54691;48.262;11.586;2022-09-09T14:34:23;0.40;;;0.30;;
2884;SDS011;54691;48.262;11.586;2022-09-09T14:41:20;1.72;;;0.45;;
2884;SDS011;54691;48.262;11.586;2022-09-09T14:48:18;1.30;;;0.50;;
2884;SDS011;54691;48.262;11.586;2022-09-09T14:55:15;0.47;;;0.30;;
2884;SDS011;54691;48.262;11.586;2022-09-09T15:02:13;0.42;;;0.20;;
2884;SDS011;54691;48.262;11.586;2022-09-09T15:09:10;1.50;;;0.75;;
2884;SDS011;54691;48.262;11.586;2022-09-09T15:16:10;2.30;;;0.60;;
2884;SDS011;54691;48.262;11.586;2022-09-09T15:23:08;0.78;;;0.33;;
2884;SDS011;54691;48.262;11.586;2022-09-09T15:30:09;3.83;;;0.50;;
2884;SDS011;54691;48.262;11.586;2022-09-09T15:37:09;4.55;;;0.75;;
2884;SDS011;54691;48.262;11.586;2022-09-09T15:47:40;1.10;;;0.50;;
2884;SDS011;54691;48.262;11.586;2022-09-09T15:54:38;1.05;;;0.57;;
2884;SDS011;54691;48.262;11.586;2022-09-09T16:01:35;2.52;;;0.72;;
2884;SDS011;54691;48.262;11.586;2022-09-09T16:08:34;1.85;;;0.78;;
2884;SDS011;54691;48.262;11.586;2022-09-09T16:15:33;1.15;;;0.40;;
2884;SDS011;54691;48.262;11.586;2022-09-09T16:22:30;3.52;;;0.60;;
2884;SDS011;54691;48.262;11.586;2022-09-09T16:29:27;0.47;;;0.40;;
2884;SDS011;54691;48.262;11.586;2022-09-09T16:36:25;0.65;;;0.40;;
2884;SDS011;54691;48.262;11.586;2022-09-09T16:43:23;1.17;;;0.70;;
2884;SDS011;54691;48.262;11.586;2022-09-09T16:50:22;0.70;;;0.40;;
2884;SDS011;54691;48.262;11.586;2022-09-09T16:57:19;4.37;;;0.72;;
2884;SDS011;54691;48.262;11.586;2022-09-09T17:04:19;1.17;;;0.30;;
2884;SDS011;54691;48.262;11.586;2022-09-09T17:11:17;0.20;;;0.20;;
2884;SDS011;54691;48.262;11.586;2022-09-09T17:18:14;1.35;;;0.60;;
2884;SDS011;54691;48.262;11.586;2022-09-09T17:25:14;1.62;;;0.62;;
2884;SDS011;54691;48.262;11.586;2022-09-09T17:32:13;2.10;;;0.80;;
2884;SDS011;54691;48.262;11.586;2022-09-09T17:39:10;3.75;;;1.22;;
2884;SDS011;54691;48.262;11.586;2022-09-09T17:46:09;2.85;;;1.00;;
2884;SDS011;54691;48.262;11.586;2022-09-09T17:53:06;3.62;;;0.90;;
2884;SDS011;54691;48.262;11.586;2022-09-09T18:00:05;3.12;;;0.85;;
2884;SDS011;54691;48.262;11.586;2022-09-09T18:07:02;2.17;;;0.93;;
2884;SDS011;54691;48.262;11.586;2022-09-09T18:14:00;3.02;;;0.78;;
2884;SDS011;54691;48.262;11.586;2022-09-09T18:21:07;3.42;;;0.70;;
2884;SDS011;54691;48.262;11.586;2022-09-09T18:31:33;4.12;;;1.10;;
2884;SDS011;54691;48.262;11.586;2022-09-09T18:38:32;2.45;;;0.70;;
2884;SDS011;54691;48.262;11.586;2022-09-09T18:45:34;4.35;;;1.87;;
2884;SDS011;54691;48.262;11.586;2022-09-09T18:52:29;6.12;;;0.80;;
2884;SDS011;54691;48.262;11.586;2022-09-09T18:59:26;4.85;;;1.10;;
2884;SDS011;54691;48.262;11.586;2022-09-09T19:06:25;1.72;;;0.47;;
2884;SDS011;54691;48.262;11.586;2022-09-09T19:13:23;3.27;;;0.98;;
2884;SDS011;54691;48.262;11.586;2022-09-09T19:20:20;1.45;;;0.60;;
2884;SDS011;54691;48.262;11.586;2022-09-09T19:27:18;6.42;;;0.90;;
2884;SDS011;54691;48.262;11.586;2022-09-09T19:34:16;3.77;;;0.78;;
2884;SDS011;54691;48.262;11.586;2022-09-09T19:41:15;1.50;;;1.00;;
2884;SDS011;54691;48.262;11.586;2022-09-09T19:48:13;3.98;;;0.70;;
2884;SDS011;54691;48.262;11.586;2022-09-09T19:55:10;4.45;;;0.70;;
2884;SDS011;54691;48.262;11.586;2022-09-09T20:02:08;4.30;;;1.35;;
2884;SDS011;54691;48.262;11.586;2022-09-09T20:09:06;1.30;;;0.80;;
2884;SDS011;54691;48.262;11.586;2022-09-09T20:16:06;1.92;;;1.12;;
2884;SDS011;54691;48.262;11.586;2022-09-09T20:23:03;3.50;;;1.17;;
2884;SDS011;54691;48.262;11.586;2022-09-09T20:30:02;2.67;;;0.80;;
2884;SDS011;54691;48.262;11.586;2022-09-09T20:36:59;2.80;;;1.02;;
2884;SDS011;54691;48.262;11.586;2022-09-09T20:44:05;2.30;;;0.85;;
2884;SDS011;54691;48.262;11.586;2022-09-09T20:51:01;1.60;;;0.80;;
2884;SDS011;54691;48.262;11.586;2022-09-09T20:58:04;1.55;;;1.10;;
2884;SDS011;54691;48.262;11.586;2022-09-09T21:04:57;2.33;;;0.88;;
2884;SDS011;54691;48.262;11.586;2022-09-09T21:11:56;4.47;;;0.60;;
2884;SDS011;54691;48.262;11.586;2022-09-09T21:18:53;1.40;;;0.65;;
2884;SDS011;54691;48.262;11.586;2022-09-09T21:25:50;4.45;;;0.93;;
2884;SDS011;54691;48.262;11.586;2022-09-09T21:32:47;5.05;;;1.47;;
2884;SDS011;54691;48.262;11.586;2022-09-09T21:39:44;6.40;;;1.67;;
2884;SDS011;54691;48.262;11.586;2022-09-09T21:46:42;2.92;;;1.00;;
2884;SDS011;54691;48.262;11.586;2022-09-09T21:53:40;3.37;;;1.12;;
2884;SDS011;54691;48.262;11.586;2022-09-09T22:00:40;3.80;;;0.90;;
2884;SDS011;54691;48.262;11.586;2022-09-09T22:07:37;10.18;;;1.22;;
2884;SDS011;54691;48.262;11.586;2022-09-09T22:14:35;2.67;;;1.10;;
2884;SDS011;54691;48.262;11.586;2022-09-09T22:21:32;3.55;;;0.90;;
2884;SDS011;54691;48.262;11.586;2022-09-09T22:28:29;4.67;;;1.05;;
2884;SDS011;54691;48.262;11.586;2022-09-09T22:35:26;2.10;;;0.68;;
2884;SDS011;54691;48.262;11.586;2022-09-09T22:42:24;2.22;;;0.88;;
2884;SDS011;54691;48.262;11.586;2022-09-09T22:49:21;6.72;;;1.40;;
2884;SDS011;54691;48.262;11.586;2022-09-09T22:56:19;2.65;;;0.70;;
2884;SDS011;54691;48.262;11.586;2022-09-09T23:03:16;2.10;;;0.78;;
2884;SDS011;54691;48.262;11.586;2022-09-09T23:10:16;2.45;;;0.70;;
2884;SDS011;54691;48.262;11.586;2022-09-09T23:17:13;1.72;;;0.50;;
2884;SDS011;54691;48.262;11.586;2022-09-09T23:24:13;4.03;;;1.12;;
2884;SDS011;54691;48.262;11.586;2022-09-09T23:31:13;3.67;;;0.60;;
2884;SDS011;54691;48.262;11.586;2022-09-09T23:38:15;2.92;;;0.60;;
2884;SDS011;54691;48.262;11.586;2022-09-09T23:41:48;3.80;;;0.40;;
2884;SDS011;54691;48.262;11.586;2022-09-09T23:48:46;1.35;;;0.55;;
2884;SDS011;54691;48.262;11.586;2022-09-09T23:55:47;3.70;;;0.65;;
